Norfolk, Virginia
Traffic Map
Current Weather Conditions
Norfolk, Virginia
Scattered Clouds
Scattered Clouds
-1°
Feels Like: -5°
Wind Chill: -5° Ceiling: Unl
Heat Index: -1° Visibility: 10mi
Dew Point: -13° Wind: 8mph
Humidity: 40% Direction: 270° (W)
Pressure: 29.96in Gusts: 0mph
Raw Report DataKORF 110351Z AUTO 27007KT 240V300 10SM SCT070 M01/M13 A2996 RMK AO2 SLP143 T10061128 TSNO
Traffic Incident Summary
Active as of:
Severity:
Category:
InformationThere was an issue retrieving the traffic information for this location. Please try a different location or try again shortly.
Advertisements
Track Severe Weather on mobile